Time;durP1;ratioP1;P1;durP2;ratioP2;P2;SDS_P1;SDS_P2;PMS_P1;PMS_P2;Temp;Humidity;BMP_temperature;BMP_pressure;BME280_temperature;BME280_humidity;BME280_pressure;Samples;Min_cycle;Max_cycle;Signal;HPM_P1;HPM_P2
2021/11/29 00:00:59;;;;;;;7.10;5.40;;;;;;;-0.35;81.03;95711.06;6350625;27;20203;-67
2021/11/29 00:04:02;;;;;;;7.57;5.70;;;;;;;-0.39;81.52;95701.81;6351290;27;20241;-66
2021/11/29 00:07:04;;;;;;;7.97;5.27;;;;;;;-0.41;81.06;95708.91;6350688;27;20297;-66
2021/11/29 00:10:07;;;;;;;7.77;5.23;;;;;;;-0.37;81.34;95703.38;6368927;27;20213;-66
2021/11/29 00:13:09;;;;;;;7.67;6.00;;;;;;;-0.35;81.01;95705.88;6369012;27;20232;-67
2021/11/29 00:16:12;;;;;;;6.60;5.47;;;;;;;-0.31;80.10;95709.09;6369094;27;20191;-67
2021/11/29 00:19:14;;;;;;;9.10;6.43;;;;;;;-0.30;80.55;95711.56;6368685;27;20693;-67
2021/11/29 00:22:16;;;;;;;7.93;6.33;;;;;;;-0.28;80.50;95727.00;6368590;28;20189;-67
2021/11/29 00:25:18;;;;;;;6.70;6.00;;;;;;;-0.30;81.07;95728.91;6368889;27;20184;-66
2021/11/29 00:28:20;;;;;;;7.70;6.53;;;;;;;-0.30;80.87;95726.31;6369209;28;20180;-67
2021/11/29 00:31:23;;;;;;;8.53;6.37;;;;;;;-0.32;81.17;95734.19;6368556;28;20571;-67
2021/11/29 00:34:25;;;;;;;8.73;7.33;;;;;;;-0.29;80.76;95725.34;6368752;28;20199;-66
2021/11/29 00:37:28;;;;;;;7.73;6.07;;;;;;;-0.29;80.75;95721.00;6350602;28;20189;-66
2021/11/29 00:40:31;;;;;;;8.63;6.03;;;;;;;-0.29;81.06;95726.16;6368744;28;20188;-66
2021/11/29 00:43:33;;;;;;;8.27;6.23;;;;;;;-0.29;80.71;95730.53;6369163;28;20203;-66
2021/11/29 00:46:35;;;;;;;9.10;6.37;;;;;;;-0.30;81.29;95736.66;6368680;28;20227;-66
2021/11/29 00:49:38;;;;;;;8.57;6.70;;;;;;;-0.34;80.93;95736.03;6368400;28;20253;-67
2021/11/29 00:52:41;;;;;;;8.93;6.30;;;;;;;-0.33;80.91;95745.47;6368484;28;20189;-67
2021/11/29 00:55:43;;;;;;;9.53;6.97;;;;;;;-0.32;81.14;95747.13;6368718;28;20192;-67
2021/11/29 00:58:45;;;;;;;11.47;6.70;;;;;;;-0.32;81.27;95749.72;6368483;28;20212;-67
2021/11/29 01:01:48;;;;;;;8.47;6.97;;;;;;;-0.28;81.31;95747.72;6368059;28;20203;-67
2021/11/29 01:04:50;;;;;;;8.53;6.67;;;;;;;-0.28;81.34;95761.53;6368763;28;20196;-66
2021/11/29 01:07:53;;;;;;;10.17;7.50;;;;;;;-0.26;81.50;95757.06;6368430;28;20192;-66
2021/11/29 01:10:55;;;;;;;9.90;7.77;;;;;;;-0.24;81.08;95772.53;6368001;28;20240;-67
2021/11/29 01:13:57;;;;;;;12.83;8.13;;;;;;;-0.25;81.51;95763.91;6368358;28;20196;-67
2021/11/29 01:16:59;;;;;;;10.23;8.00;;;;;;;-0.25;81.32;95773.44;6368515;28;20249;-67
2021/11/29 01:20:03;;;;;;;11.37;8.60;;;;;;;-0.23;81.45;95761.22;6368070;28;20262;-66
2021/11/29 01:23:06;;;;;;;11.23;8.30;;;;;;;-0.24;81.33;95777.69;6367714;28;20204;-66
2021/11/29 01:26:10;;;;;;;12.30;8.07;;;;;;;-0.25;81.79;95771.69;6368350;28;20207;-67
2021/11/29 01:29:12;;;;;;;9.83;7.83;;;;;;;-0.26;81.37;95769.19;6367952;28;20195;-68
2021/11/29 01:32:14;;;;;;;11.27;7.87;;;;;;;-0.28;81.64;95768.47;6368063;28;20723;-67
2021/11/29 01:35:16;;;;;;;11.50;9.10;;;;;;;-0.29;81.71;95770.22;6368450;27;20234;-66
2021/11/29 01:38:19;;;;;;;10.00;7.80;;;;;;;-0.31;82.01;95771.28;6372282;27;20216;-66
2021/11/29 01:41:21;;;;;;;9.87;7.83;;;;;;;-0.32;81.92;95774.81;6372154;27;20185;-67
2021/11/29 01:44:23;;;;;;;11.23;8.30;;;;;;;-0.30;82.15;95772.94;6372653;27;20189;-71
2021/11/29 01:47:26;;;;;;;11.90;9.00;;;;;;;-0.34;82.07;95777.50;6372296;27;20668;-67
2021/11/29 01:50:30;;;;;;;11.03;8.33;;;;;;;-0.38;81.77;95779.47;6353746;27;20216;-67
2021/11/29 01:53:35;;;;;;;8.63;6.73;;;;;;;-0.39;82.25;95790.75;6371896;27;20224;-67
2021/11/29 01:56:38;;;;;;;9.87;7.53;;;;;;;-0.40;81.50;95796.06;6372338;27;20675;-66
2021/11/29 01:59:41;;;;;;;8.97;7.67;;;;;;;-0.41;81.48;95789.22;6372036;27;20212;-66
2021/11/29 02:02:46;;;;;;;9.33;7.33;;;;;;;-0.41;81.43;95787.47;6371489;27;20640;-66
2021/11/29 02:05:49;;;;;;;9.97;7.53;;;;;;;-0.44;81.19;95790.25;6353877;27;20241;-67
2021/11/29 02:08:52;;;;;;;8.70;6.77;;;;;;;-0.43;81.36;95793.66;6371884;27;20639;-66
2021/11/29 02:11:54;;;;;;;9.70;7.17;;;;;;;-0.44;81.27;95792.84;6371909;27;20288;-69
2021/11/29 02:14:58;;;;;;;9.53;6.83;;;;;;;-0.45;81.51;95783.41;6337177;27;20624;-66
2021/11/29 02:18:01;;;;;;;11.27;7.70;;;;;;;-0.44;81.00;95792.00;6371383;27;20197;-66
2021/11/29 02:21:05;;;;;;;9.43;7.67;;;;;;;-0.45;81.34;95787.75;6353166;27;20299;-66
2021/11/29 02:24:08;;;;;;;10.53;7.90;;;;;;;-0.46;80.89;95789.50;6353036;27;20226;-66
2021/11/29 02:27:10;;;;;;;9.23;6.97;;;;;;;-0.48;81.00;95782.78;6353446;27;20238;-66
2021/11/29 02:30:14;;;;;;;8.43;7.37;;;;;;;-0.50;81.23;95782.88;6371280;27;20229;-67
2021/11/29 02:33:16;;;;;;;8.20;6.73;;;;;;;-0.51;80.59;95780.41;6370644;27;20617;-66
2021/11/29 02:36:18;;;;;;;10.47;7.90;;;;;;;-0.51;80.87;95777.81;6371290;27;20180;-67
2021/11/29 02:39:20;;;;;;;8.97;7.40;;;;;;;-0.52;81.17;95781.34;6352780;27;20220;-66
2021/11/29 02:42:23;;;;;;;10.53;7.13;;;;;;;-0.53;81.08;95784.84;6369597;27;20568;-67
2021/11/29 02:45:29;;;;;;;10.83;7.67;;;;;;;-0.56;81.19;95782.47;6352353;27;20195;-66
2021/11/29 02:48:47;;;;;;;11.60;8.30;;;;;;;-0.57;81.04;95779.03;6370695;27;20229;-66
2021/11/29 02:51:53;;;;;;;11.10;7.40;;;;;;;-0.59;80.87;95772.28;6352213;27;20201;-66
2021/11/29 02:54:55;;;;;;;8.93;7.00;;;;;;;-0.58;80.73;95784.31;6352641;27;20278;-70
2021/11/29 02:57:57;;;;;;;11.43;7.90;;;;;;;-0.59;80.75;95780.91;6352239;27;20185;-66
2021/11/29 03:01:00;;;;;;;10.87;7.60;;;;;;;-0.60;80.73;95794.78;6370550;27;20185;-66
2021/11/29 03:04:03;;;;;;;11.60;7.00;;;;;;;-0.58;80.29;95795.50;6352363;27;20724;-66
2021/11/29 03:07:06;;;;;;;10.33;7.63;;;;;;;-0.59;80.42;95795.59;6370798;27;20188;-66
2021/11/29 03:10:08;;;;;;;11.83;7.17;;;;;;;-0.61;80.44;95800.91;6351772;27;20241;-66
2021/11/29 03:13:10;;;;;;;9.50;7.20;;;;;;;-0.60;80.50;95802.53;6369660;27;20232;-66
2021/11/29 03:16:13;;;;;;;9.27;6.90;;;;;;;-0.59;80.47;95803.38;6370124;27;20727;-67
2021/11/29 03:19:15;;;;;;;8.67;6.63;;;;;;;-0.60;80.04;95815.50;6370305;27;20269;-68
2021/11/29 03:22:17;;;;;;;10.73;7.70;;;;;;;-0.59;80.53;95813.75;6351726;27;20189;-66
2021/11/29 03:25:20;;;;;;;7.47;6.67;;;;;;;-0.58;80.19;95820.59;6369926;27;20185;-66
2021/11/29 03:28:22;;;;;;;9.83;7.40;;;;;;;-0.61;80.11;95821.63;6369556;27;20313;-66
2021/11/29 03:31:29;;;;;;;9.90;7.43;;;;;;;-0.62;79.90;95827.75;6369683;27;20261;-66
2021/11/29 03:34:32;;;;;;;9.13;6.70;;;;;;;-0.64;80.00;95832.19;6370031;27;20180;-66
2021/11/29 03:37:34;;;;;;;8.90;6.13;;;;;;;-0.64;79.83;95827.00;6369778;27;20273;-66
2021/11/29 03:40:38;;;;;;;9.27;6.20;;;;;;;-0.63;79.26;95833.03;6369363;27;20529;-66
2021/11/29 03:43:40;;;;;;;11.37;6.87;;;;;;;-0.63;79.29;95833.03;6368835;27;20574;-66
2021/11/29 03:46:45;;;;;;;9.30;5.97;;;;;;;-0.65;79.64;95827.09;6369696;27;20193;-66
2021/11/29 03:49:49;;;;;;;8.27;6.30;;;;;;;-0.65;79.56;95838.28;6334397;27;20200;-72
2021/11/29 03:52:51;;;;;;;9.97;5.73;;;;;;;-0.65;79.24;95840.88;6368993;27;20757;-66
2021/11/29 03:55:53;;;;;;;7.90;5.77;;;;;;;-0.64;79.24;95842.56;6369354;27;20656;-66
2021/11/29 03:58:55;;;;;;;9.57;5.97;;;;;;;-0.66;79.87;95838.38;6369113;27;20315;-68
2021/11/29 04:01:57;;;;;;;10.17;6.40;;;;;;;-0.66;79.46;95840.97;6369197;27;20181;-65
2021/11/29 04:05:00;;;;;;;8.20;6.17;;;;;;;-0.67;78.99;95842.75;6369076;27;20196;-65
2021/11/29 04:08:02;;;;;;;8.03;5.90;;;;;;;-0.66;78.87;95846.16;6369158;27;20635;-66
2021/11/29 04:11:05;;;;;;;10.27;6.23;;;;;;;-0.67;79.20;95839.31;6368798;27;20224;-66
2021/11/29 04:14:07;;;;;;;9.00;6.97;;;;;;;-0.68;79.25;95841.06;6368517;27;20196;-65
2021/11/29 04:17:09;;;;;;;11.37;7.30;;;;;;;-0.69;78.91;95838.59;6369142;27;20219;-66
2021/11/29 04:20:15;;;;;;;9.07;6.70;;;;;;;-0.68;79.10;95845.44;6368800;27;20690;-66
2021/11/29 04:23:17;;;;;;;8.40;6.37;;;;;;;-0.69;79.01;95852.38;6368844;28;20181;-66
2021/11/29 04:26:20;;;;;;;9.40;6.77;;;;;;;-0.69;79.04;95848.94;6368732;28;20199;-66
2021/11/29 04:29:28;;;;;;;8.93;6.50;;;;;;;-0.70;79.34;95853.31;6368673;28;20705;-66
2021/11/29 04:32:30;;;;;;;9.00;6.10;;;;;;;-0.67;78.73;95857.44;6368949;28;20185;-65
2021/11/29 04:35:32;;;;;;;8.70;5.93;;;;;;;-0.65;78.89;95855.59;6368459;28;20245;-66
2021/11/29 04:38:34;;;;;;;9.20;6.77;;;;;;;-0.63;78.65;95856.34;6368549;28;20188;-66
2021/11/29 04:41:36;;;;;;;9.73;6.77;;;;;;;-0.64;78.39;95865.03;6368418;28;20253;-67
2021/11/29 04:44:38;;;;;;;9.20;6.60;;;;;;;-0.63;78.53;95871.88;6368751;28;20533;-65
2021/11/29 04:47:41;;;;;;;9.67;6.83;;;;;;;-0.65;78.71;95876.31;6368769;28;20682;-66
2021/11/29 04:50:43;;;;;;;8.70;6.40;;;;;;;-0.62;78.63;95878.72;6368394;28;20216;-65
2021/11/29 04:53:45;;;;;;;9.37;6.87;;;;;;;-0.63;78.93;95874.47;6368829;28;20188;-66
2021/11/29 04:56:47;;;;;;;10.30;7.20;;;;;;;-0.63;78.66;95885.66;6368331;28;20196;-65
2021/11/29 04:59:50;;;;;;;9.37;6.40;;;;;;;-0.65;78.94;95879.75;6368401;28;20211;-66
2021/11/29 05:02:52;;;;;;;8.37;6.43;;;;;;;-0.65;79.06;95877.16;6350000;28;20193;-66
2021/11/29 05:05:54;;;;;;;10.63;6.50;;;;;;;-0.66;79.42;95880.66;6349868;28;20193;-65
2021/11/29 05:09:10;;;;;;;7.87;5.90;;;;;;;-0.67;79.36;95880.75;6368170;28;20201;-65
2021/11/29 05:12:15;;;;;;;7.43;6.13;;;;;;;-0.67;79.31;95880.75;6371668;27;20217;-66
2021/11/29 05:15:17;;;;;;;8.13;6.20;;;;;;;-0.68;79.38;95892.03;6373060;27;20659;-66
2021/11/29 05:18:20;;;;;;;8.87;6.13;;;;;;;-0.68;79.51;95890.28;6373158;27;20647;-66
2021/11/29 05:21:23;;;;;;;9.90;6.43;;;;;;;-0.69;79.69;95900.75;6372580;27;20296;-66
2021/11/29 05:24:25;;;;;;;10.33;6.30;;;;;;;-0.69;79.90;95900.75;6354625;27;20715;-66
2021/11/29 05:27:27;;;;;;;6.93;5.07;;;;;;;-0.68;79.60;95911.00;6372651;27;20220;-65
2021/11/29 05:30:29;;;;;;;7.87;5.37;;;;;;;-0.69;79.29;95924.88;6354252;27;20184;-68
2021/11/29 05:33:31;;;;;;;7.37;5.43;;;;;;;-0.69;79.45;95921.47;6372296;27;20204;-67
2021/11/29 05:36:34;;;;;;;7.47;5.37;;;;;;;-0.68;78.85;95925.72;6337410;27;20655;-66
2021/11/29 05:39:37;;;;;;;8.33;5.40;;;;;;;-0.67;79.16;95933.38;6353881;27;20763;-71
2021/11/29 05:42:40;;;;;;;6.50;5.10;;;;;;;-0.67;78.99;95933.38;6372458;27;20180;-65
2021/11/29 05:45:43;;;;;;;7.87;5.63;;;;;;;-0.67;78.64;95929.97;6372449;27;20671;-65
2021/11/29 05:48:45;;;;;;;6.37;4.73;;;;;;;-0.66;78.21;95937.66;6372240;27;20180;-66
2021/11/29 05:51:47;;;;;;;7.00;5.13;;;;;;;-0.62;78.13;95940.88;6372283;27;20200;-65
2021/11/29 05:54:49;;;;;;;6.90;4.50;;;;;;;-0.66;78.15;95950.59;6372316;27;20193;-65
2021/11/29 05:57:51;;;;;;;9.47;5.07;;;;;;;-0.66;78.13;95945.41;6371785;27;20245;-67
2021/11/29 06:00:53;;;;;;;6.50;4.53;;;;;;;-0.65;78.10;95951.44;6371915;27;20204;-66
2021/11/29 06:03:56;;;;;;;5.27;4.60;;;;;;;-0.64;78.28;95959.09;6371962;27;20552;-66
2021/11/29 06:06:58;;;;;;;8.93;5.53;;;;;;;-0.63;77.95;95954.75;6371954;27;20196;-65
2021/11/29 06:10:00;;;;;;;5.33;4.30;;;;;;;-0.64;77.75;95966.88;6371867;27;20539;-65
2021/11/29 06:13:02;;;;;;;5.97;4.60;;;;;;;-0.61;77.98;95968.44;6344836;28;20236;-66
2021/11/29 06:16:05;;;;;;;7.43;5.07;;;;;;;-0.64;78.16;95969.47;6346167;28;20193;-65
2021/11/29 06:19:08;;;;;;;6.80;5.27;;;;;;;-0.66;78.12;95976.50;6345921;28;20200;-65
2021/11/29 06:22:10;;;;;;;5.87;4.57;;;;;;;-0.65;78.19;95979.91;6345424;28;20193;-65
2021/11/29 06:25:12;;;;;;;6.33;4.50;;;;;;;-0.67;78.16;95984.38;6346164;28;20196;-66
2021/11/29 06:28:14;;;;;;;8.33;4.63;;;;;;;-0.65;78.21;95996.28;6345932;28;20660;-66
2021/11/29 06:31:16;;;;;;;7.73;4.67;;;;;;;-0.63;77.90;96002.22;6345611;28;20234;-66
2021/11/29 06:34:18;;;;;;;7.77;4.83;;;;;;;-0.61;77.78;96005.56;6346040;28;20182;-66
2021/11/29 06:37:24;;;;;;;6.50;4.77;;;;;;;-0.61;78.26;96005.56;6345763;28;20656;-65
2021/11/29 06:40:28;;;;;;;6.53;4.70;;;;;;;-0.60;77.87;96022.72;6345467;28;20202;-66
2021/11/29 06:43:31;;;;;;;7.23;4.63;;;;;;;-0.58;77.99;96022.63;6323441;28;20259;-65
2021/11/29 06:46:33;;;;;;;6.57;4.90;;;;;;;-0.60;78.05;96027.91;6318897;28;20198;-65
2021/11/29 06:49:35;;;;;;;6.03;4.70;;;;;;;-0.58;77.57;96035.59;6319752;28;20190;-66
2021/11/29 06:52:37;;;;;;;6.60;4.70;;;;;;;-0.52;77.69;96035.22;6320103;28;20213;-68
2021/11/29 06:55:40;;;;;;;6.60;4.80;;;;;;;-0.52;77.69;96032.63;6320008;28;20200;-65
2021/11/29 06:58:42;;;;;;;5.53;4.30;;;;;;;-0.50;78.09;96038.56;6319617;28;20566;-66
2021/11/29 07:01:45;;;;;;;7.30;5.13;;;;;;;-0.49;77.56;96040.19;6319759;28;20198;-65
2021/11/29 07:04:48;;;;;;;6.47;4.23;;;;;;;-0.46;77.35;96040.00;6318819;28;20194;-66
2021/11/29 07:07:51;;;;;;;9.33;5.27;;;;;;;-0.46;77.36;96046.03;6319347;28;20202;-65
2021/11/29 07:10:53;;;;;;;7.27;4.37;;;;;;;-0.44;77.72;96049.34;6320718;28;20206;-66
2021/11/29 07:13:55;;;;;;;7.50;5.00;;;;;;;-0.44;77.74;96045.94;6344952;28;20193;-66
2021/11/29 07:16:57;;;;;;;5.40;4.53;;;;;;;-0.42;77.86;96049.25;6326398;28;20232;-66
2021/11/29 07:20:00;;;;;;;6.30;4.60;;;;;;;-0.34;77.43;96046.19;6369307;27;20671;-66
2021/11/29 07:23:07;;;;;;;6.90;4.67;;;;;;;-0.32;77.14;96044.34;6370044;27;20189;-66
2021/11/29 07:26:09;;;;;;;7.37;5.07;;;;;;;-0.29;77.52;96042.34;6351815;27;20632;-66
2021/11/29 07:29:14;;;;;;;6.80;4.47;;;;;;;-0.24;77.39;96045.50;6369699;27;20700;-66
2021/11/29 07:32:16;;;;;;;6.37;4.60;;;;;;;-0.22;77.43;96053.19;6370549;27;20177;-66
2021/11/29 07:35:19;;;;;;;6.87;4.87;;;;;;;-0.18;77.26;96054.63;6368810;27;20205;-65
2021/11/29 07:38:21;;;;;;;8.37;4.93;;;;;;;-0.19;77.52;96056.38;6369714;27;20200;-66
2021/11/29 07:41:23;;;;;;;8.27;4.63;;;;;;;-0.19;77.73;96056.38;6350957;27;20201;-65
2021/11/29 07:44:25;;;;;;;8.23;5.50;;;;;;;-0.17;77.54;96051.13;6369741;27;20181;-66
2021/11/29 07:47:27;;;;;;;6.97;5.30;;;;;;;-0.15;77.66;96062.22;6369215;27;20654;-65
2021/11/29 07:50:30;;;;;;;7.30;5.30;;;;;;;-0.13;77.26;96066.38;6369470;27;20558;-67
2021/11/29 07:53:32;;;;;;;6.47;5.30;;;;;;;-0.10;77.19;96068.75;6369471;27;20652;-67
2021/11/29 07:56:34;;;;;;;7.20;5.03;;;;;;;-0.08;76.72;96073.84;6369296;27;20188;-66
2021/11/29 07:59:37;;;;;;;7.37;5.93;;;;;;;-0.07;77.12;96073.75;6343756;28;20209;-66
2021/11/29 08:02:58;;;;;;;7.63;5.53;;;;;;;-0.02;77.09;96071.72;6368105;27;20193;-65
2021/11/29 08:06:01;;;;;;;6.70;5.40;;;;;;;0.02;77.21;96076.69;6369390;27;20648;-66
2021/11/29 08:09:04;;;;;;;8.20;6.00;;;;;;;0.03;76.79;96088.72;6368549;27;20764;-65
2021/11/29 08:12:06;;;;;;;8.17;5.50;;;;;;;0.08;76.94;96097.06;6342157;28;20239;-66
2021/11/29 08:15:09;;;;;;;6.67;5.20;;;;;;;0.07;76.77;96098.81;6343819;28;20192;-66
2021/11/29 08:18:12;;;;;;;7.37;5.87;;;;;;;0.09;76.90;96112.53;6343214;28;20388;-66
2021/11/29 08:21:15;;;;;;;9.87;5.63;;;;;;;0.13;76.26;96113.16;6341793;28;20200;-65
2021/11/29 08:24:17;;;;;;;7.70;5.50;;;;;;;0.19;76.00;96110.19;6343615;28;20665;-73
2021/11/29 08:27:19;;;;;;;9.73;6.30;;;;;;;0.20;76.53;96117.03;6342410;28;20181;-65
2021/11/29 08:30:24;;;;;;;7.10;5.30;;;;;;;0.23;76.16;96127.19;6342946;28;20565;-66
2021/11/29 08:33:26;;;;;;;6.63;5.73;;;;;;;0.28;75.85;96123.38;6343059;28;20189;-66
2021/11/29 08:36:29;;;;;;;7.87;5.73;;;;;;;0.41;75.64;96120.81;6343604;28;20699;-66
2021/11/29 08:39:31;;;;;;;7.40;5.87;;;;;;;0.44;75.80;96119.78;6342413;28;20575;-65
2021/11/29 08:42:33;;;;;;;8.87;5.33;;;;;;;0.48;74.70;96129.88;6333606;28;20274;-72
2021/11/29 08:45:37;;;;;;;8.93;5.97;;;;;;;0.56;74.80;96147.53;6320497;28;20189;-65
2021/11/29 08:48:39;;;;;;;10.60;6.53;;;;;;;0.74;74.46;96138.53;6321313;28;20193;-66
2021/11/29 08:51:41;;;;;;;10.23;6.83;;;;;;;0.98;73.25;96138.69;6323303;28;20182;-65
2021/11/29 08:54:43;;;;;;;9.33;6.57;;;;;;;1.21;71.95;96148.34;6322924;28;20593;-66
2021/11/29 08:57:46;;;;;;;8.47;6.80;;;;;;;1.46;71.71;96152.72;6345177;28;20196;-67
2021/11/29 09:00:52;;;;;;;11.03;7.90;;;;;;;1.50;71.75;96158.53;6346243;28;20244;-67
2021/11/29 09:03:54;;;;;;;10.83;8.10;;;;;;;1.72;71.48;96156.09;6348014;28;20185;-69
2021/11/29 09:06:57;;;;;;;13.03;8.77;;;;;;;1.93;70.53;96169.38;6347973;28;20223;-67
2021/11/29 09:09:59;;;;;;;10.63;7.90;;;;;;;2.28;69.38;96156.47;6347836;28;20228;-66
2021/11/29 09:13:01;;;;;;;12.20;8.10;;;;;;;2.35;68.72;96168.09;6368060;27;20223;-66
2021/11/29 09:16:06;;;;;;;11.13;7.77;;;;;;;2.42;69.13;96169.31;6372861;27;20714;-67
2021/11/29 09:19:10;;;;;;;11.07;8.07;;;;;;;1.95;69.72;96178.75;6373084;27;20177;-70
2021/11/29 09:22:12;;;;;;;10.77;8.07;;;;;;;1.88;70.37;96189.69;6354813;27;20215;-67
2021/11/29 09:25:15;;;;;;;10.73;8.23;;;;;;;1.92;70.68;96189.34;6373429;27;20196;-67
2021/11/29 09:28:17;;;;;;;10.97;7.90;;;;;;;2.03;70.29;96186.84;6373007;27;20246;-66
2021/11/29 09:31:19;;;;;;;13.03;7.63;;;;;;;2.25;70.12;96187.91;6372155;27;20313;-66
2021/11/29 09:34:22;;;;;;;10.47;7.23;;;;;;;2.01;70.28;96183.50;6354466;27;20192;-67
2021/11/29 09:37:24;;;;;;;8.40;6.97;;;;;;;1.97;70.62;96194.25;6372841;27;20237;-67
2021/11/29 09:40:33;;;;;;;11.90;8.07;;;;;;;1.74;71.04;96178.47;6353942;27;20226;-67
2021/11/29 09:43:35;;;;;;;10.13;8.10;;;;;;;1.64;71.46;96190.44;6372579;27;20230;-67
2021/11/29 09:46:38;;;;;;;10.60;7.97;;;;;;;1.62;71.11;96188.88;6373196;27;20515;-66
2021/11/29 09:49:40;;;;;;;11.30;8.17;;;;;;;1.66;70.96;96188.56;6354009;27;20192;-66
2021/11/29 09:52:42;;;;;;;9.93;7.43;;;;;;;1.55;70.92;96188.47;6372266;27;20234;-67
2021/11/29 09:55:45;;;;;;;8.30;7.00;;;;;;;1.62;71.62;96194.06;6371995;27;20188;-70
2021/11/29 09:58:48;;;;;;;9.40;7.30;;;;;;;1.71;71.36;96194.25;6371704;27;20192;-67
2021/11/29 10:01:52;;;;;;;9.17;7.20;;;;;;;1.77;71.93;96188.66;6353217;27;20692;-67
2021/11/29 10:04:54;;;;;;;11.07;7.70;;;;;;;1.61;71.49;96206.22;6372271;27;20198;-67
2021/11/29 10:07:56;;;;;;;11.50;7.90;;;;;;;1.56;71.84;96197.09;6353689;27;20321;-66
2021/11/29 10:11:06;;;;;;;10.53;7.63;;;;;;;1.57;71.70;96193.56;6371734;27;20223;-69
2021/11/29 10:14:09;;;;;;;10.83;8.23;;;;;;;1.56;71.94;96195.34;6372124;27;20169;-66
2021/11/29 10:17:11;;;;;;;11.57;8.60;;;;;;;1.53;71.32;96186.91;6353248;27;20595;-66
2021/11/29 10:20:14;;;;;;;9.63;7.83;;;;;;;1.57;70.53;96185.78;6372285;27;20204;-67
2021/11/29 10:23:25;;;;;;;11.23;8.00;;;;;;;1.53;70.39;96205.94;6371669;27;20184;-67
2021/11/29 10:26:35;;;;;;;9.63;7.30;;;;;;;1.52;70.70;96185.22;6352960;27;20216;-66
2021/11/29 10:29:37;;;;;;;11.53;8.37;;;;;;;1.61;70.84;96185.44;6353212;27;20262;-66
2021/11/29 10:32:43;;;;;;;12.67;8.80;;;;;;;1.78;70.68;96190.31;6371276;27;20208;-67
2021/11/29 10:35:45;;;;;;;11.70;8.50;;;;;;;1.76;70.81;96183.56;6371787;27;20643;-67
2021/11/29 10:38:52;;;;;;;11.10;8.87;;;;;;;1.74;70.96;96180.22;6371510;27;20265;-67
2021/11/29 10:42:05;;;;;;;11.43;8.10;;;;;;;1.70;70.64;96189.16;6371016;27;20688;-66
2021/11/29 10:45:19;;;;;;;11.17;8.50;;;;;;;1.71;70.27;96185.63;6327474;28;20201;-66
2021/11/29 10:48:26;;;;;;;11.80;8.73;;;;;;;1.90;70.42;96196.41;6351779;27;20570;-67
2021/11/29 10:51:28;;;;;;;11.23;8.83;;;;;;;2.00;70.58;96194.00;6370067;27;20189;-67
2021/11/29 10:54:33;;;;;;;9.90;7.57;;;;;;;1.83;70.04;96200.41;6371070;27;20200;-67
2021/11/29 10:57:49;;;;;;;11.70;8.37;;;;;;;1.77;70.14;96198.22;6370873;27;20674;-66
2021/11/29 11:00:51;;;;;;;12.17;9.10;;;;;;;1.80;70.78;96205.81;6369931;27;20671;-67
2021/11/29 11:03:57;;;;;;;12.07;8.97;;;;;;;1.91;70.41;96205.88;6370804;27;20245;-67
2021/11/29 11:07:04;;;;;;;11.93;8.90;;;;;;;2.04;69.95;96219.72;6352612;27;20737;-68
2021/11/29 11:10:13;;;;;;;11.17;8.33;;;;;;;2.02;69.84;96212.94;6370539;27;20205;-67
2021/11/29 11:13:15;;;;;;;12.90;8.50;;;;;;;2.04;69.58;96214.50;6370061;27;20240;-66
2021/11/29 11:16:58;;;;;;;11.10;8.93;;;;;;;2.00;69.58;96217.41;6370648;27;20196;-66
2021/11/29 11:20:13;;;;;;;9.83;7.77;;;;;;;2.02;69.52;96218.16;6351907;27;20200;-67
2021/11/29 11:23:26;;;;;;;10.83;7.40;;;;;;;1.90;69.82;96227.63;6369858;27;20177;-65
2021/11/29 11:26:32;;;;;;;11.87;8.57;;;;;;;1.97;69.39;96228.91;6351985;27;20570;-66
2021/11/29 11:29:43;;;;;;;10.37;8.27;;;;;;;1.98;69.27;96238.38;6351513;27;20197;-66
2021/11/29 11:32:58;;;;;;;10.17;7.73;;;;;;;1.95;69.26;96232.53;6369985;27;20189;-66
2021/11/29 11:36:00;;;;;;;11.20;7.97;;;;;;;1.99;68.49;96239.19;6352033;27;20266;-68
2021/11/29 11:39:06;;;;;;;10.07;7.63;;;;;;;2.15;68.78;96240.63;6369469;27;20188;-66
2021/11/29 11:42:08;;;;;;;12.30;8.27;;;;;;;2.36;68.37;96227.03;6369659;27;20563;-66
2021/11/29 11:45:16;;;;;;;9.90;7.53;;;;;;;2.53;67.78;96224.88;6369896;27;20242;-66
2021/11/29 11:48:19;;;;;;;9.27;7.33;;;;;;;2.41;67.58;96235.34;6369877;27;20224;-66
2021/11/29 11:51:21;;;;;;;11.83;8.13;;;;;;;2.56;67.81;96229.06;6368728;27;20192;-66
2021/11/29 11:54:23;;;;;;;8.67;7.47;;;;;;;2.58;67.29;96233.22;6369958;27;20777;-66
2021/11/29 11:57:51;;;;;;;10.27;7.20;;;;;;;2.88;65.89;96230.16;6369280;27;20166;-66
2021/11/29 12:01:00;;;;;;;7.17;6.03;;;;;;;2.75;65.59;96236.38;6350350;27;20193;-67
2021/11/29 12:04:03;;;;;;;7.87;6.30;;;;;;;2.92;65.19;96233.34;6369371;27;20192;-66
2021/11/29 12:07:05;;;;;;;8.37;6.23;;;;;;;3.30;65.13;96240.97;6369460;27;20553;-66
2021/11/29 12:10:37;;;;;;;6.77;6.03;;;;;;;2.99;63.68;96242.41;6350941;27;20216;-65
2021/11/29 12:13:44;;;;;;;7.03;5.70;;;;;;;3.09;63.62;96256.44;6350493;27;20536;-67
2021/11/29 12:16:52;;;;;;;8.87;6.20;;;;;;;3.17;63.89;96251.47;6350764;27;20579;-66
2021/11/29 12:20:09;;;;;;;7.63;6.07;;;;;;;3.42;64.56;96257.47;6368641;27;20196;-66
2021/11/29 12:23:42;;;;;;;7.63;5.90;;;;;;;3.62;63.64;96262.03;6350378;28;20185;-66
2021/11/29 12:26:50;;;;;;;7.83;6.33;;;;;;;3.55;64.14;96263.44;6368950;28;20190;-66
2021/11/29 12:29:56;;;;;;;7.47;6.20;;;;;;;3.49;63.84;96250.88;6368900;28;20200;-66
2021/11/29 12:33:02;;;;;;;7.47;6.00;;;;;;;3.44;63.63;96271.22;6368820;28;20218;-66
2021/11/29 12:36:05;;;;;;;9.27;6.57;;;;;;;3.11;64.39;96271.94;6368785;28;20222;-67
2021/11/29 12:39:07;;;;;;;10.57;6.27;;;;;;;3.05;65.42;96268.00;6368823;28;20191;-66
2021/11/29 12:42:18;;;;;;;8.73;6.80;;;;;;;3.00;65.46;96280.53;6368410;28;20208;-66
2021/11/29 12:45:25;;;;;;;7.90;5.90;;;;;;;2.74;66.21;96290.22;6369034;28;20199;-67
2021/11/29 12:48:36;;;;;;;7.33;6.17;;;;;;;2.58;66.15;96294.88;6368846;28;20229;-66
2021/11/29 12:51:41;;;;;;;9.47;7.17;;;;;;;2.16;67.39;96303.91;6368222;28;20214;-66
2021/11/29 12:54:45;;;;;;;7.20;6.50;;;;;;;2.14;68.37;96300.56;6368460;28;20737;-65
2021/11/29 12:58:09;;;;;;;8.70;6.70;;;;;;;2.18;69.21;96297.66;6368884;28;20204;-66
2021/11/29 13:01:12;;;;;;;9.20;6.67;;;;;;;2.06;67.91;96306.31;6349665;28;20695;-66
2021/11/29 13:04:21;;;;;;;8.07;6.73;;;;;;;1.92;69.42;96311.59;6368168;28;20190;-66
2021/11/29 13:07:23;;;;;;;11.47;7.33;;;;;;;1.84;70.14;96308.69;6368623;28;20188;-65
2021/11/29 13:10:56;;;;;;;7.87;6.70;;;;;;;1.71;70.70;96321.69;6368497;28;20216;-65
2021/11/29 13:14:21;;;;;;;7.40;6.17;;;;;;;1.88;70.28;96322.34;6368263;28;20180;-66
2021/11/29 13:17:35;;;;;;;8.43;6.70;;;;;;;2.06;69.89;96315.88;6350061;28;20177;-66
2021/11/29 13:20:47;;;;;;;8.63;6.67;;;;;;;2.00;69.18;96318.88;6368251;28;20193;-66
2021/11/29 13:24:26;;;;;;;9.97;6.77;;;;;;;1.94;69.47;96329.72;6368260;28;20288;-66
2021/11/29 13:27:28;;;;;;;6.33;5.37;;;;;;;1.97;69.65;96345.97;6368297;28;20177;-70
2021/11/29 13:30:30;;;;;;;7.73;5.50;;;;;;;1.96;69.69;96349.50;6368040;27;20576;-66
2021/11/29 13:33:35;;;;;;;6.43;5.37;;;;;;;1.85;70.21;96347.63;6371406;27;20199;-66
2021/11/29 13:36:43;;;;;;;6.83;5.87;;;;;;;1.87;70.23;96357.91;6372779;27;20201;-66
2021/11/29 13:39:52;;;;;;;10.00;6.73;;;;;;;1.81;69.94;96350.50;6372661;27;20185;-66
2021/11/29 13:42:56;;;;;;;8.77;5.57;;;;;;;1.68;70.96;96360.91;6372206;27;20223;-66
2021/11/29 13:45:58;;;;;;;6.80;5.73;;;;;;;1.60;70.61;96357.16;6372534;27;20387;-65
2021/11/29 13:49:08;;;;;;;7.63;6.17;;;;;;;1.56;71.42;96351.31;6372887;27;20199;-68
2021/11/29 13:52:20;;;;;;;7.77;6.27;;;;;;;1.47;71.30;96363.16;6354017;27;20192;-66
2021/11/29 13:55:25;;;;;;;9.37;6.77;;;;;;;1.32;71.99;96366.72;6372510;27;20249;-66
2021/11/29 13:58:30;;;;;;;6.80;5.77;;;;;;;1.27;72.08;96376.59;6372809;27;20177;-66
2021/11/29 14:01:32;;;;;;;8.10;6.70;;;;;;;1.27;71.98;96384.41;6371645;27;20205;-65
2021/11/29 14:04:36;;;;;;;7.03;6.00;;;;;;;1.20;72.24;96377.09;6372117;27;20196;-66
2021/11/29 14:07:54;;;;;;;9.57;6.40;;;;;;;1.13;72.59;96384.44;6372123;27;20196;-66
2021/11/29 14:11:00;;;;;;;8.97;6.63;;;;;;;1.01;73.08;96385.22;6371505;27;20228;-67
2021/11/29 14:14:04;;;;;;;7.97;6.30;;;;;;;0.91;73.45;96382.34;6353625;27;20258;-66
2021/11/29 14:17:13;;;;;;;8.67;6.90;;;;;;;0.87;73.47;96393.06;6353755;27;20200;-71
2021/11/29 14:20:16;;;;;;;9.03;6.40;;;;;;;0.77;73.74;96386.75;6336201;27;20185;-66
2021/11/29 14:23:18;;;;;;;7.53;5.63;;;;;;;0.74;74.20;96395.56;6371510;27;20212;-66
2021/11/29 14:26:32;;;;;;;9.07;6.83;;;;;;;0.68;73.97;96396.78;6353362;27;20616;-66
2021/11/29 14:29:39;;;;;;;8.63;6.77;;;;;;;0.61;74.25;96398.06;6353203;27;20184;-67